sensor_id;sensor_type;location;lat;lon;timestamp;temperature;humidity
78793;SHT31;68134;51.984;5.652;2024-03-25T00:01:49;6.3;77.2
78793;SHT31;68134;51.984;5.652;2024-03-25T00:04:18;6.3;77.2
78793;SHT31;68134;51.984;5.652;2024-03-25T00:06:48;6.3;77.3
78793;SHT31;68134;51.984;5.652;2024-03-25T00:09:17;6.3;77.3
78793;SHT31;68134;51.984;5.652;2024-03-25T00:11:47;6.2;77.5
78793;SHT31;68134;51.984;5.652;2024-03-25T00:14:15;6.2;77.5
78793;SHT31;68134;51.984;5.652;2024-03-25T00:16:44;6.2;77.4
78793;SHT31;68134;51.984;5.652;2024-03-25T00:19:13;6.2;77.5
78793;SHT31;68134;51.984;5.652;2024-03-25T00:21:41;6.2;77.6
78793;SHT31;68134;51.984;5.652;2024-03-25T00:24:12;6.1;77.6
78793;SHT31;68134;51.984;5.652;2024-03-25T00:26:41;6.1;77.5
78793;SHT31;68134;51.984;5.652;2024-03-25T00:29:09;6.1;77.4
78793;SHT31;68134;51.984;5.652;2024-03-25T00:31:38;6.1;77.6
78793;SHT31;68134;51.984;5.652;2024-03-25T00:34:07;6.1;77.7
78793;SHT31;68134;51.984;5.652;2024-03-25T00:36:35;6.1;77.6
78793;SHT31;68134;51.984;5.652;2024-03-25T00:39:04;6.0;77.4
78793;SHT31;68134;51.984;5.652;2024-03-25T00:41:34;6.0;77.3
78793;SHT31;68134;51.984;5.652;2024-03-25T00:44:02;6.0;77.4
78793;SHT31;68134;51.984;5.652;2024-03-25T00:46:31;6.0;77.4
78793;SHT31;68134;51.984;5.652;2024-03-25T00:48:59;6.0;77.5
78793;SHT31;68134;51.984;5.652;2024-03-25T00:51:28;6.1;77.7
78793;SHT31;68134;51.984;5.652;2024-03-25T00:53:56;6.1;77.6
78793;SHT31;68134;51.984;5.652;2024-03-25T00:56:25;6.1;77.5
78793;SHT31;68134;51.984;5.652;2024-03-25T00:58:54;6.1;77.2
78793;SHT31;68134;51.984;5.652;2024-03-25T01:01:23;6.1;77.2
78793;SHT31;68134;51.984;5.652;2024-03-25T01:03:52;6.1;76.9
78793;SHT31;68134;51.984;5.652;2024-03-25T01:06:21;6.1;77.0
78793;SHT31;68134;51.984;5.652;2024-03-25T01:08:50;6.1;77.1
78793;SHT31;68134;51.984;5.652;2024-03-25T01:11:19;6.1;77.2
78793;SHT31;68134;51.984;5.652;2024-03-25T01:13:48;6.1;77.3
78793;SHT31;68134;51.984;5.652;2024-03-25T01:16:17;6.0;77.6
78793;SHT31;68134;51.984;5.652;2024-03-25T01:18:46;6.0;77.4
78793;SHT31;68134;51.984;5.652;2024-03-25T01:21:14;6.0;77.5
78793;SHT31;68134;51.984;5.652;2024-03-25T01:23:45;6.0;77.7
78793;SHT31;68134;51.984;5.652;2024-03-25T01:26:13;5.9;77.6
78793;SHT31;68134;51.984;5.652;2024-03-25T01:28:43;5.9;77.7
78793;SHT31;68134;51.984;5.652;2024-03-25T01:31:11;5.9;77.9
78793;SHT31;68134;51.984;5.652;2024-03-25T01:33:40;5.9;77.9
78793;SHT31;68134;51.984;5.652;2024-03-25T01:36:09;5.9;77.9
78793;SHT31;68134;51.984;5.652;2024-03-25T01:38:42;5.9;77.9
78793;SHT31;68134;51.984;5.652;2024-03-25T01:41:13;5.8;78.1
78793;SHT31;68134;51.984;5.652;2024-03-25T01:43:42;5.8;78.3
78793;SHT31;68134;51.984;5.652;2024-03-25T01:46:11;5.8;78.4
78793;SHT31;68134;51.984;5.652;2024-03-25T01:48:43;5.8;78.6
78793;SHT31;68134;51.984;5.652;2024-03-25T01:51:13;5.7;78.7
78793;SHT31;68134;51.984;5.652;2024-03-25T01:53:42;5.7;78.6
78793;SHT31;68134;51.984;5.652;2024-03-25T01:56:13;5.7;78.7
78793;SHT31;68134;51.984;5.652;2024-03-25T01:58:42;5.7;78.4
78793;SHT31;68134;51.984;5.652;2024-03-25T02:01:11;5.7;78.3
78793;SHT31;68134;51.984;5.652;2024-03-25T02:03:42;5.7;78.2
78793;SHT31;68134;51.984;5.652;2024-03-25T02:06:13;5.7;78.0
78793;SHT31;68134;51.984;5.652;2024-03-25T02:08:43;5.7;78.1
78793;SHT31;68134;51.984;5.652;2024-03-25T02:11:12;5.7;78.1
78793;SHT31;68134;51.984;5.652;2024-03-25T02:13:41;5.7;78.0
78793;SHT31;68134;51.984;5.652;2024-03-25T02:16:10;5.7;77.9
78793;SHT31;68134;51.984;5.652;2024-03-25T02:18:39;5.6;77.8
78793;SHT31;68134;51.984;5.652;2024-03-25T02:21:07;5.6;77.9
78793;SHT31;68134;51.984;5.652;2024-03-25T02:23:39;5.6;77.9
78793;SHT31;68134;51.984;5.652;2024-03-25T02:26:10;5.6;78.0
78793;SHT31;68134;51.984;5.652;2024-03-25T02:28:39;5.6;78.0
78793;SHT31;68134;51.984;5.652;2024-03-25T02:31:07;5.6;78.2
78793;SHT31;68134;51.984;5.652;2024-03-25T02:33:36;5.6;78.1
78793;SHT31;68134;51.984;5.652;2024-03-25T02:36:05;5.6;77.9
78793;SHT31;68134;51.984;5.652;2024-03-25T02:38:34;5.6;78.2
78793;SHT31;68134;51.984;5.652;2024-03-25T02:41:03;5.6;78.3
78793;SHT31;68134;51.984;5.652;2024-03-25T02:43:33;5.6;78.2
78793;SHT31;68134;51.984;5.652;2024-03-25T02:46:01;5.6;78.2
78793;SHT31;68134;51.984;5.652;2024-03-25T02:48:30;5.6;78.1
78793;SHT31;68134;51.984;5.652;2024-03-25T02:50:59;5.6;77.8
78793;SHT31;68134;51.984;5.652;2024-03-25T02:53:27;5.6;77.7
78793;SHT31;68134;51.984;5.652;2024-03-25T02:55:56;5.6;77.9
78793;SHT31;68134;51.984;5.652;2024-03-25T02:58:24;5.5;77.6
78793;SHT31;68134;51.984;5.652;2024-03-25T03:00:53;5.5;77.4
78793;SHT31;68134;51.984;5.652;2024-03-25T03:03:21;5.5;77.5
78793;SHT31;68134;51.984;5.652;2024-03-25T03:05:50;5.5;77.6
78793;SHT31;68134;51.984;5.652;2024-03-25T03:08:18;5.5;77.4
78793;SHT31;68134;51.984;5.652;2024-03-25T03:10:47;5.5;77.3
78793;SHT31;68134;51.984;5.652;2024-03-25T03:13:15;5.5;77.5
78793;SHT31;68134;51.984;5.652;2024-03-25T03:15:45;5.5;77.4
78793;SHT31;68134;51.984;5.652;2024-03-25T03:18:14;5.5;77.2
78793;SHT31;68134;51.984;5.652;2024-03-25T03:20:42;5.5;76.9
78793;SHT31;68134;51.984;5.652;2024-03-25T03:23:11;5.4;76.8
78793;SHT31;68134;51.984;5.652;2024-03-25T03:25:40;5.4;76.4
78793;SHT31;68134;51.984;5.652;2024-03-25T03:28:09;5.4;76.5
78793;SHT31;68134;51.984;5.652;2024-03-25T03:30:37;5.4;76.7
78793;SHT31;68134;51.984;5.652;2024-03-25T03:33:06;5.4;76.5
78793;SHT31;68134;51.984;5.652;2024-03-25T03:35:35;5.4;76.3
78793;SHT31;68134;51.984;5.652;2024-03-25T03:38:04;5.4;76.7
78793;SHT31;68134;51.984;5.652;2024-03-25T03:40:33;5.4;76.4
78793;SHT31;68134;51.984;5.652;2024-03-25T03:43:01;5.4;76.4
78793;SHT31;68134;51.984;5.652;2024-03-25T03:45:33;5.5;75.9
78793;SHT31;68134;51.984;5.652;2024-03-25T03:48:02;5.5;75.9
78793;SHT31;68134;51.984;5.652;2024-03-25T03:50:31;5.5;75.7
78793;SHT31;68134;51.984;5.652;2024-03-25T03:52:59;5.5;75.6
78793;SHT31;68134;51.984;5.652;2024-03-25T03:55:28;5.5;75.2
78793;SHT31;68134;51.984;5.652;2024-03-25T03:57:56;5.5;74.9
78793;SHT31;68134;51.984;5.652;2024-03-25T04:00:25;5.5;74.8
78793;SHT31;68134;51.984;5.652;2024-03-25T04:02:54;5.5;75.3
78793;SHT31;68134;51.984;5.652;2024-03-25T04:05:22;5.5;75.6
78793;SHT31;68134;51.984;5.652;2024-03-25T04:07:51;5.4;75.5
78793;SHT31;68134;51.984;5.652;2024-03-25T04:10:19;5.4;74.7
78793;SHT31;68134;51.984;5.652;2024-03-25T04:12:48;5.4;74.4
78793;SHT31;68134;51.984;5.652;2024-03-25T04:15:16;5.4;74.4
78793;SHT31;68134;51.984;5.652;2024-03-25T04:17:46;5.3;74.4
78793;SHT31;68134;51.984;5.652;2024-03-25T04:20:15;5.3;74.4
78793;SHT31;68134;51.984;5.652;2024-03-25T04:22:45;5.3;74.5
78793;SHT31;68134;51.984;5.652;2024-03-25T04:25:16;5.2;74.5
78793;SHT31;68134;51.984;5.652;2024-03-25T04:27:45;5.2;74.7
78793;SHT31;68134;51.984;5.652;2024-03-25T04:30:14;5.2;75.1
78793;SHT31;68134;51.984;5.652;2024-03-25T04:32:43;5.2;75.0
78793;SHT31;68134;51.984;5.652;2024-03-25T04:35:11;5.2;75.0
78793;SHT31;68134;51.984;5.652;2024-03-25T04:37:40;5.1;75.1
78793;SHT31;68134;51.984;5.652;2024-03-25T04:40:12;5.1;75.4
78793;SHT31;68134;51.984;5.652;2024-03-25T04:42:41;5.1;75.2
78793;SHT31;68134;51.984;5.652;2024-03-25T04:45:10;5.1;75.6
78793;SHT31;68134;51.984;5.652;2024-03-25T04:47:38;5.0;75.8
78793;SHT31;68134;51.984;5.652;2024-03-25T04:50:07;5.0;75.9
78793;SHT31;68134;51.984;5.652;2024-03-25T04:52:36;5.0;75.9
78793;SHT31;68134;51.984;5.652;2024-03-25T04:55:06;5.0;76.1
78793;SHT31;68134;51.984;5.652;2024-03-25T04:57:35;5.0;76.5
78793;SHT31;68134;51.984;5.652;2024-03-25T05:00:04;5.0;76.7
78793;SHT31;68134;51.984;5.652;2024-03-25T05:02:33;5.0;77.0
78793;SHT31;68134;51.984;5.652;2024-03-25T05:05:03;5.0;77.1
78793;SHT31;68134;51.984;5.652;2024-03-25T05:07:34;4.9;77.3
78793;SHT31;68134;51.984;5.652;2024-03-25T05:10:02;4.9;78.0
78793;SHT31;68134;51.984;5.652;2024-03-25T05:12:32;4.9;78.4
78793;SHT31;68134;51.984;5.652;2024-03-25T05:15:00;4.9;78.3
78793;SHT31;68134;51.984;5.652;2024-03-25T05:17:29;5.0;78.4
78793;SHT31;68134;51.984;5.652;2024-03-25T05:19:57;5.0;78.4
78793;SHT31;68134;51.984;5.652;2024-03-25T05:22:26;5.0;78.8
78793;SHT31;68134;51.984;5.652;2024-03-25T05:24:54;5.0;78.8
78793;SHT31;68134;51.984;5.652;2024-03-25T05:27:23;5.0;78.6
78793;SHT31;68134;51.984;5.652;2024-03-25T05:29:51;5.0;78.4
78793;SHT31;68134;51.984;5.652;2024-03-25T05:32:20;5.0;78.4
78793;SHT31;68134;51.984;5.652;2024-03-25T05:34:48;5.0;78.4
78793;SHT31;68134;51.984;5.652;2024-03-25T05:37:17;5.0;78.2
78793;SHT31;68134;51.984;5.652;2024-03-25T05:39:45;5.0;78.3
78793;SHT31;68134;51.984;5.652;2024-03-25T05:42:14;5.0;78.5
78793;SHT31;68134;51.984;5.652;2024-03-25T05:44:45;5.0;78.8
78793;SHT31;68134;51.984;5.652;2024-03-25T05:47:14;5.0;79.1
78793;SHT31;68134;51.984;5.652;2024-03-25T05:49:42;5.0;79.1
78793;SHT31;68134;51.984;5.652;2024-03-25T05:52:11;5.0;79.5
78793;SHT31;68134;51.984;5.652;2024-03-25T05:54:39;5.0;79.7
78793;SHT31;68134;51.984;5.652;2024-03-25T05:57:08;5.0;79.8
78793;SHT31;68134;51.984;5.652;2024-03-25T05:59:36;5.0;80.1
78793;SHT31;68134;51.984;5.652;2024-03-25T06:02:05;5.1;80.1
78793;SHT31;68134;51.984;5.652;2024-03-25T06:04:34;5.1;80.3
78793;SHT31;68134;51.984;5.652;2024-03-25T06:07:02;5.1;80.2
78793;SHT31;68134;51.984;5.652;2024-03-25T06:09:31;5.1;80.2
78793;SHT31;68134;51.984;5.652;2024-03-25T06:11:59;5.1;80.0
78793;SHT31;68134;51.984;5.652;2024-03-25T06:14:29;5.1;80.0
78793;SHT31;68134;51.984;5.652;2024-03-25T06:16:57;5.1;80.1
78793;SHT31;68134;51.984;5.652;2024-03-25T06:19:26;5.1;80.1
78793;SHT31;68134;51.984;5.652;2024-03-25T06:21:54;5.2;79.8
78793;SHT31;68134;51.984;5.652;2024-03-25T06:24:23;5.2;79.9
78793;SHT31;68134;51.984;5.652;2024-03-25T06:26:52;5.2;79.7
78793;SHT31;68134;51.984;5.652;2024-03-25T06:29:20;5.2;79.6
78793;SHT31;68134;51.984;5.652;2024-03-25T06:31:49;5.3;79.4
78793;SHT31;68134;51.984;5.652;2024-03-25T06:34:34;5.3;79.5
78793;SHT31;68134;51.984;5.652;2024-03-25T06:37:02;5.3;79.5
78793;SHT31;68134;51.984;5.652;2024-03-25T06:39:31;5.3;79.6
78793;SHT31;68134;51.984;5.652;2024-03-25T06:42:00;5.4;79.4
78793;SHT31;68134;51.984;5.652;2024-03-25T06:44:28;5.4;79.6
78793;SHT31;68134;51.984;5.652;2024-03-25T06:46:57;5.4;79.7
78793;SHT31;68134;51.984;5.652;2024-03-25T06:49:26;5.5;79.9
78793;SHT31;68134;51.984;5.652;2024-03-25T06:51:54;5.5;80.0
78793;SHT31;68134;51.984;5.652;2024-03-25T06:54:23;5.5;80.2
78793;SHT31;68134;51.984;5.652;2024-03-25T06:56:54;5.6;80.4
78793;SHT31;68134;51.984;5.652;2024-03-25T06:59:23;5.6;80.8
78793;SHT31;68134;51.984;5.652;2024-03-25T07:01:52;5.6;81.1
78793;SHT31;68134;51.984;5.652;2024-03-25T07:04:21;5.7;81.4
78793;SHT31;68134;51.984;5.652;2024-03-25T07:06:49;5.7;81.6
78793;SHT31;68134;51.984;5.652;2024-03-25T07:09:18;5.8;81.7
78793;SHT31;68134;51.984;5.652;2024-03-25T07:11:47;5.8;82.2
78793;SHT31;68134;51.984;5.652;2024-03-25T07:14:15;5.9;82.9
78793;SHT31;68134;51.984;5.652;2024-03-25T07:16:44;6.0;82.7
78793;SHT31;68134;51.984;5.652;2024-03-25T07:19:12;6.1;82.7
78793;SHT31;68134;51.984;5.652;2024-03-25T07:21:41;6.2;81.8
78793;SHT31;68134;51.984;5.652;2024-03-25T07:24:09;6.3;81.3
78793;SHT31;68134;51.984;5.652;2024-03-25T07:26:38;6.4;81.4
78793;SHT31;68134;51.984;5.652;2024-03-25T07:29:07;6.5;81.4
78793;SHT31;68134;51.984;5.652;2024-03-25T07:31:35;6.5;81.7
78793;SHT31;68134;51.984;5.652;2024-03-25T07:34:04;6.7;81.7
78793;SHT31;68134;51.984;5.652;2024-03-25T07:36:33;6.8;81.5
78793;SHT31;68134;51.984;5.652;2024-03-25T07:39:02;7.0;80.7
78793;SHT31;68134;51.984;5.652;2024-03-25T07:41:32;7.1;79.7
78793;SHT31;68134;51.984;5.652;2024-03-25T07:44:00;7.2;79.0
78793;SHT31;68134;51.984;5.652;2024-03-25T07:46:29;7.4;79.3
78793;SHT31;68134;51.984;5.652;2024-03-25T07:48:57;7.5;79.6
78793;SHT31;68134;51.984;5.652;2024-03-25T07:51:26;7.6;79.1
78793;SHT31;68134;51.984;5.652;2024-03-25T07:53:55;7.8;79.3
78793;SHT31;68134;51.984;5.652;2024-03-25T07:56:23;8.1;78.7
78793;SHT31;68134;51.984;5.652;2024-03-25T07:58:52;8.3;77.1
78793;SHT31;68134;51.984;5.652;2024-03-25T08:01:20;8.6;76.6
78793;SHT31;68134;51.984;5.652;2024-03-25T08:03:49;8.8;76.2
78793;SHT31;68134;51.984;5.652;2024-03-25T08:06:17;9.0;76.7
78793;SHT31;68134;51.984;5.652;2024-03-25T08:08:47;9.4;75.1
78793;SHT31;68134;51.984;5.652;2024-03-25T08:11:16;9.8;73.9
78793;SHT31;68134;51.984;5.652;2024-03-25T08:13:44;10.3;68.8
78793;SHT31;68134;51.984;5.652;2024-03-25T08:16:13;10.8;67.8
78793;SHT31;68134;51.984;5.652;2024-03-25T08:18:41;11.3;66.6
78793;SHT31;68134;51.984;5.652;2024-03-25T08:21:10;11.9;65.3
78793;SHT31;68134;51.984;5.652;2024-03-25T08:23:38;12.4;61.5
78793;SHT31;68134;51.984;5.652;2024-03-25T08:26:07;12.9;59.7
78793;SHT31;68134;51.984;5.652;2024-03-25T08:28:35;13.2;58.6
78793;SHT31;68134;51.984;5.652;2024-03-25T08:31:04;13.5;58.4
78793;SHT31;68134;51.984;5.652;2024-03-25T08:33:33;13.8;56.7
78793;SHT31;68134;51.984;5.652;2024-03-25T08:36:01;14.2;56.9
78793;SHT31;68134;51.984;5.652;2024-03-25T08:38:30;14.5;55.1
78793;SHT31;68134;51.984;5.652;2024-03-25T08:41:01;14.9;54.5
78793;SHT31;68134;51.984;5.652;2024-03-25T08:43:30;15.1;52.7
78793;SHT31;68134;51.984;5.652;2024-03-25T08:45:59;15.3;52.9
78793;SHT31;68134;51.984;5.652;2024-03-25T08:48:27;15.5;50.8
78793;SHT31;68134;51.984;5.652;2024-03-25T08:50:56;15.7;50.5
78793;SHT31;68134;51.984;5.652;2024-03-25T08:53:25;15.8;49.4
78793;SHT31;68134;51.984;5.652;2024-03-25T08:55:53;15.9;47.9
78793;SHT31;68134;51.984;5.652;2024-03-25T08:58:22;16.0;47.5
78793;SHT31;68134;51.984;5.652;2024-03-25T09:00:50;16.0;48.5
78793;SHT31;68134;51.984;5.652;2024-03-25T09:03:19;16.0;48.3
78793;SHT31;68134;51.984;5.652;2024-03-25T09:05:48;16.1;47.5
78793;SHT31;68134;51.984;5.652;2024-03-25T09:08:17;16.2;48.4
78793;SHT31;68134;51.984;5.652;2024-03-25T09:10:45;16.3;47.0
78793;SHT31;68134;51.984;5.652;2024-03-25T09:13:33;16.4;46.3
78793;SHT31;68134;51.984;5.652;2024-03-25T09:16:02;16.6;46.2
78793;SHT31;68134;51.984;5.652;2024-03-25T09:18:31;16.7;46.6
78793;SHT31;68134;51.984;5.652;2024-03-25T09:21:00;16.9;45.2
78793;SHT31;68134;51.984;5.652;2024-03-25T09:23:28;17.2;44.4
78793;SHT31;68134;51.984;5.652;2024-03-25T09:25:57;17.4;43.5
78793;SHT31;68134;51.984;5.652;2024-03-25T09:28:25;17.7;43.1
78793;SHT31;68134;51.984;5.652;2024-03-25T09:30:54;17.9;43.2
78793;SHT31;68134;51.984;5.652;2024-03-25T09:33:22;18.2;40.7
78793;SHT31;68134;51.984;5.652;2024-03-25T09:35:51;18.2;40.5
78793;SHT31;68134;51.984;5.652;2024-03-25T09:38:20;18.3;40.2
78793;SHT31;68134;51.984;5.652;2024-03-25T09:40:52;18.4;41.8
78793;SHT31;68134;51.984;5.652;2024-03-25T09:43:25;18.4;41.2
78793;SHT31;68134;51.984;5.652;2024-03-25T09:45:59;18.4;40.4
78793;SHT31;68134;51.984;5.652;2024-03-25T09:48:30;18.4;41.1
78793;SHT31;68134;51.984;5.652;2024-03-25T09:51:02;18.3;41.3
78793;SHT31;68134;51.984;5.652;2024-03-25T09:53:31;18.3;40.7
78793;SHT31;68134;51.984;5.652;2024-03-25T09:56:00;18.3;41.5
78793;SHT31;68134;51.984;5.652;2024-03-25T09:58:30;18.4;41.3
78793;SHT31;68134;51.984;5.652;2024-03-25T10:00:59;18.6;39.8
78793;SHT31;68134;51.984;5.652;2024-03-25T10:03:28;18.7;39.6
78793;SHT31;68134;51.984;5.652;2024-03-25T10:05:56;18.8;40.3
78793;SHT31;68134;51.984;5.652;2024-03-25T10:08:25;19.0;39.1
78793;SHT31;68134;51.984;5.652;2024-03-25T10:10:56;19.1;40.0
78793;SHT31;68134;51.984;5.652;2024-03-25T10:13:27;19.3;37.4
78793;SHT31;68134;51.984;5.652;2024-03-25T10:15:56;19.3;37.2
78793;SHT31;68134;51.984;5.652;2024-03-25T10:18:25;19.4;38.9
78793;SHT31;68134;51.984;5.652;2024-03-25T10:20:54;19.5;38.5
78793;SHT31;68134;51.984;5.652;2024-03-25T10:23:23;19.6;37.2
78793;SHT31;68134;51.984;5.652;2024-03-25T10:25:53;19.8;38.3
78793;SHT31;68134;51.984;5.652;2024-03-25T10:28:22;20.0;37.8
78793;SHT31;68134;51.984;5.652;2024-03-25T10:30:50;20.1;36.7
78793;SHT31;68134;51.984;5.652;2024-03-25T10:33:19;20.1;36.4
78793;SHT31;68134;51.984;5.652;2024-03-25T10:35:51;20.1;36.3
78793;SHT31;68134;51.984;5.652;2024-03-25T10:38:24;20.1;36.7
78793;SHT31;68134;51.984;5.652;2024-03-25T10:40:55;20.0;36.4
78793;SHT31;68134;51.984;5.652;2024-03-25T10:43:29;20.1;36.6
78793;SHT31;68134;51.984;5.652;2024-03-25T10:46:00;20.2;35.9
78793;SHT31;68134;51.984;5.652;2024-03-25T10:48:31;20.4;34.3
78793;SHT31;68134;51.984;5.652;2024-03-25T10:51:05;20.4;35.3
78793;SHT31;68134;51.984;5.652;2024-03-25T10:53:37;20.3;35.4
78793;SHT31;68134;51.984;5.652;2024-03-25T10:56:07;20.3;35.3
78793;SHT31;68134;51.984;5.652;2024-03-25T10:58:36;20.3;34.7
78793;SHT31;68134;51.984;5.652;2024-03-25T11:01:06;20.3;34.6
78793;SHT31;68134;51.984;5.652;2024-03-25T11:03:36;20.3;35.1
78793;SHT31;68134;51.984;5.652;2024-03-25T11:06:05;20.3;35.0
78793;SHT31;68134;51.984;5.652;2024-03-25T11:08:36;20.3;33.3
78793;SHT31;68134;51.984;5.652;2024-03-25T11:11:05;20.3;33.1
78793;SHT31;68134;51.984;5.652;2024-03-25T11:13:34;20.3;33.4
78793;SHT31;68134;51.984;5.652;2024-03-25T11:16:03;20.3;34.1
78793;SHT31;68134;51.984;5.652;2024-03-25T11:18:31;20.3;34.1
78793;SHT31;68134;51.984;5.652;2024-03-25T11:21:05;20.3;34.0
78793;SHT31;68134;51.984;5.652;2024-03-25T11:23:40;20.2;34.8
78793;SHT31;68134;51.984;5.652;2024-03-25T11:26:19;20.2;35.6
78793;SHT31;68134;51.984;5.652;2024-03-25T11:28:49;20.3;34.0
78793;SHT31;68134;51.984;5.652;2024-03-25T11:31:20;20.3;33.4
78793;SHT31;68134;51.984;5.652;2024-03-25T11:33:52;20.4;33.2
78793;SHT31;68134;51.984;5.652;2024-03-25T11:36:25;20.5;32.4
78793;SHT31;68134;51.984;5.652;2024-03-25T11:38:59;20.6;33.1
78793;SHT31;68134;51.984;5.652;2024-03-25T11:41:32;20.8;33.0
78793;SHT31;68134;51.984;5.652;2024-03-25T11:44:01;21.0;32.4
78793;SHT31;68134;51.984;5.652;2024-03-25T11:46:30;21.2;32.8
78793;SHT31;68134;51.984;5.652;2024-03-25T11:49:00;21.5;32.3
78793;SHT31;68134;51.984;5.652;2024-03-25T11:51:29;21.8;30.4
78793;SHT31;68134;51.984;5.652;2024-03-25T11:53:58;21.9;30.5
78793;SHT31;68134;51.984;5.652;2024-03-25T11:56:27;21.9;31.2
78793;SHT31;68134;51.984;5.652;2024-03-25T11:58:55;22.1;31.1
78793;SHT31;68134;51.984;5.652;2024-03-25T12:01:26;22.5;31.0
78793;SHT31;68134;51.984;5.652;2024-03-25T12:03:55;23.0;30.3
78793;SHT31;68134;51.984;5.652;2024-03-25T12:06:23;23.3;27.9
78793;SHT31;68134;51.984;5.652;2024-03-25T12:08:54;23.4;27.2
78793;SHT31;68134;51.984;5.652;2024-03-25T12:13:21;23.5;28.1
78793;SHT31;68134;51.984;5.652;2024-03-25T12:15:51;23.6;28.2
78793;SHT31;68134;51.984;5.652;2024-03-25T12:18:20;23.6;27.9
78793;SHT31;68134;51.984;5.652;2024-03-25T12:20:49;23.6;28.3
78793;SHT31;68134;51.984;5.652;2024-03-25T12:23:19;23.6;28.5
78793;SHT31;68134;51.984;5.652;2024-03-25T12:25:50;23.7;28.2
78793;SHT31;68134;51.984;5.652;2024-03-25T12:28:19;23.9;28.9
78793;SHT31;68134;51.984;5.652;2024-03-25T12:30:52;24.2;28.8
78793;SHT31;68134;51.984;5.652;2024-03-25T12:33:21;24.4;28.2
78793;SHT31;68134;51.984;5.652;2024-03-25T12:35:52;24.5;28.3
78793;SHT31;68134;51.984;5.652;2024-03-25T12:38:28;24.6;26.5
78793;SHT31;68134;51.984;5.652;2024-03-25T12:41:03;24.6;26.2
78793;SHT31;68134;51.984;5.652;2024-03-25T12:43:34;24.3;26.2
78793;SHT31;68134;51.984;5.652;2024-03-25T12:46:03;23.8;26.0
78793;SHT31;68134;51.984;5.652;2024-03-25T12:48:32;23.8;25.7
78793;SHT31;68134;51.984;5.652;2024-03-25T12:51:02;23.8;27.2
78793;SHT31;68134;51.984;5.652;2024-03-25T12:53:31;23.8;26.3
78793;SHT31;68134;51.984;5.652;2024-03-25T12:56:02;23.8;26.9
78793;SHT31;68134;51.984;5.652;2024-03-25T12:58:31;23.7;25.2
78793;SHT31;68134;51.984;5.652;2024-03-25T13:00:59;23.7;25.4
78793;SHT31;68134;51.984;5.652;2024-03-25T13:03:28;23.6;25.3
78793;SHT31;68134;51.984;5.652;2024-03-25T13:05:57;23.5;25.3
78793;SHT31;68134;51.984;5.652;2024-03-25T13:08:26;23.2;26.1
78793;SHT31;68134;51.984;5.652;2024-03-25T13:10:54;23.0;26.6
78793;SHT31;68134;51.984;5.652;2024-03-25T13:13:23;23.0;27.1
78793;SHT31;68134;51.984;5.652;2024-03-25T13:15:52;23.1;27.1
78793;SHT31;68134;51.984;5.652;2024-03-25T13:18:20;23.3;26.9
78793;SHT31;68134;51.984;5.652;2024-03-25T13:20:49;23.5;26.4
78793;SHT31;68134;51.984;5.652;2024-03-25T13:23:17;23.8;24.8
78793;SHT31;68134;51.984;5.652;2024-03-25T13:25:46;23.9;24.6
78793;SHT31;68134;51.984;5.652;2024-03-25T13:28:14;24.0;24.4
78793;SHT31;68134;51.984;5.652;2024-03-25T13:30:43;24.0;24.6
78793;SHT31;68134;51.984;5.652;2024-03-25T13:33:11;24.0;23.9
78793;SHT31;68134;51.984;5.652;2024-03-25T13:35:40;23.9;24.5
78793;SHT31;68134;51.984;5.652;2024-03-25T13:38:08;24.0;24.4
78793;SHT31;68134;51.984;5.652;2024-03-25T13:40:37;24.0;25.0
78793;SHT31;68134;51.984;5.652;2024-03-25T13:43:06;24.1;23.7
78793;SHT31;68134;51.984;5.652;2024-03-25T13:45:35;24.2;24.7
78793;SHT31;68134;51.984;5.652;2024-03-25T13:48:07;24.3;23.6
78793;SHT31;68134;51.984;5.652;2024-03-25T13:50:35;24.4;23.1
78793;SHT31;68134;51.984;5.652;2024-03-25T13:53:04;24.5;24.7
78793;SHT31;68134;51.984;5.652;2024-03-25T13:55:34;24.7;25.3
78793;SHT31;68134;51.984;5.652;2024-03-25T13:58:03;24.9;24.3
78793;SHT31;68134;51.984;5.652;2024-03-25T14:00:34;25.1;24.2
78793;SHT31;68134;51.984;5.652;2024-03-25T14:03:03;25.3;23.2
78793;SHT31;68134;51.984;5.652;2024-03-25T14:05:32;25.5;23.1
78793;SHT31;68134;51.984;5.652;2024-03-25T14:08:03;25.6;22.8
78793;SHT31;68134;51.984;5.652;2024-03-25T14:10:33;25.7;22.3
78793;SHT31;68134;51.984;5.652;2024-03-25T14:13:02;25.6;22.1
78793;SHT31;68134;51.984;5.652;2024-03-25T14:15:32;25.5;22.9
78793;SHT31;68134;51.984;5.652;2024-03-25T14:18:00;25.3;22.5
78793;SHT31;68134;51.984;5.652;2024-03-25T14:20:30;25.1;21.5
78793;SHT31;68134;51.984;5.652;2024-03-25T14:22:58;25.0;22.0
78793;SHT31;68134;51.984;5.652;2024-03-25T14:25:27;24.9;21.5
78793;SHT31;68134;51.984;5.652;2024-03-25T14:27:56;24.8;21.4
78793;SHT31;68134;51.984;5.652;2024-03-25T14:30:25;24.7;21.2
78793;SHT31;68134;51.984;5.652;2024-03-25T14:32:53;24.6;21.0
78793;SHT31;68134;51.984;5.652;2024-03-25T14:35:22;24.6;21.8
78793;SHT31;68134;51.984;5.652;2024-03-25T14:37:51;24.5;22.2
78793;SHT31;68134;51.984;5.652;2024-03-25T14:40:22;24.4;22.7
78793;SHT31;68134;51.984;5.652;2024-03-25T14:42:51;24.3;22.2
78793;SHT31;68134;51.984;5.652;2024-03-25T14:45:19;24.1;24.0
78793;SHT31;68134;51.984;5.652;2024-03-25T14:47:48;23.8;25.1
78793;SHT31;68134;51.984;5.652;2024-03-25T14:50:18;23.7;25.9
78793;SHT31;68134;51.984;5.652;2024-03-25T14:52:47;23.6;24.9
78793;SHT31;68134;51.984;5.652;2024-03-25T14:55:17;23.5;26.2
78793;SHT31;68134;51.984;5.652;2024-03-25T14:57:46;23.4;25.0
78793;SHT31;68134;51.984;5.652;2024-03-25T15:00:15;23.2;25.4
78793;SHT31;68134;51.984;5.652;2024-03-25T15:02:44;22.7;25.4
78793;SHT31;68134;51.984;5.652;2024-03-25T15:05:13;22.1;25.5
78793;SHT31;68134;51.984;5.652;2024-03-25T15:07:41;21.7;25.8
78793;SHT31;68134;51.984;5.652;2024-03-25T15:10:10;21.5;25.4
78793;SHT31;68134;51.984;5.652;2024-03-25T15:12:39;21.2;25.8
78793;SHT31;68134;51.984;5.652;2024-03-25T15:15:09;21.0;27.0
78793;SHT31;68134;51.984;5.652;2024-03-25T15:17:37;20.7;26.9
78793;SHT31;68134;51.984;5.652;2024-03-25T15:20:07;20.2;27.7
78793;SHT31;68134;51.984;5.652;2024-03-25T15:22:36;19.9;28.3
78793;SHT31;68134;51.984;5.652;2024-03-25T15:25:05;19.8;28.4
78793;SHT31;68134;51.984;5.652;2024-03-25T15:27:36;19.6;28.8
78793;SHT31;68134;51.984;5.652;2024-03-25T15:30:05;19.6;28.2
78793;SHT31;68134;51.984;5.652;2024-03-25T15:32:34;19.5;29.1
78793;SHT31;68134;51.984;5.652;2024-03-25T15:35:03;19.5;28.5
78793;SHT31;68134;51.984;5.652;2024-03-25T15:37:31;19.4;28.3
78793;SHT31;68134;51.984;5.652;2024-03-25T15:40:00;19.2;28.5
78793;SHT31;68134;51.984;5.652;2024-03-25T15:42:30;18.9;28.8
78793;SHT31;68134;51.984;5.652;2024-03-25T15:44:58;18.7;29.2
78793;SHT31;68134;51.984;5.652;2024-03-25T15:47:27;18.4;28.6
78793;SHT31;68134;51.984;5.652;2024-03-25T15:49:56;18.2;29.9
78793;SHT31;68134;51.984;5.652;2024-03-25T15:52:26;18.0;29.9
78793;SHT31;68134;51.984;5.652;2024-03-25T15:54:55;17.8;31.3
78793;SHT31;68134;51.984;5.652;2024-03-25T15:57:23;17.7;30.9
78793;SHT31;68134;51.984;5.652;2024-03-25T15:59:52;17.6;32.3
78793;SHT31;68134;51.984;5.652;2024-03-25T16:02:20;17.6;32.0
78793;SHT31;68134;51.984;5.652;2024-03-25T16:04:49;17.5;31.0
78793;SHT31;68134;51.984;5.652;2024-03-25T16:07:18;17.5;32.6
78793;SHT31;68134;51.984;5.652;2024-03-25T16:09:46;17.5;32.1
78793;SHT31;68134;51.984;5.652;2024-03-25T16:12:15;17.4;33.2
78793;SHT31;68134;51.984;5.652;2024-03-25T16:14:43;17.4;32.2
78793;SHT31;68134;51.984;5.652;2024-03-25T16:17:12;17.3;32.7
78793;SHT31;68134;51.984;5.652;2024-03-25T16:19:40;17.2;33.5
78793;SHT31;68134;51.984;5.652;2024-03-25T16:22:11;17.1;33.8
78793;SHT31;68134;51.984;5.652;2024-03-25T16:24:41;17.0;34.3